createdAt,value
2018-12-07T00:00:48.615Z,9.49
2018-12-07T00:01:48.593Z,9.52
2018-12-07T00:02:48.584Z,9.53
2018-12-07T00:03:48.573Z,9.57
2018-12-07T00:04:48.562Z,9.56
2018-12-07T00:05:48.560Z,9.60
2018-12-07T00:06:48.538Z,9.56
2018-12-07T00:07:48.531Z,9.60
2018-12-07T00:08:48.523Z,9.61
2018-12-07T00:09:48.508Z,9.64
2018-12-07T00:10:48.508Z,9.60
2018-12-07T00:11:48.486Z,9.58
2018-12-07T00:12:48.479Z,9.63
2018-12-07T00:13:48.514Z,9.58
2018-12-07T00:14:48.453Z,9.52
2018-12-07T00:15:48.474Z,9.58
2018-12-07T00:16:48.431Z,9.53
2018-12-07T00:17:48.421Z,9.56
2018-12-07T00:18:48.413Z,9.67
2018-12-07T00:19:48.408Z,9.63
2018-12-07T00:20:48.390Z,9.66
2018-12-07T00:21:48.393Z,9.57
2018-12-07T00:22:48.368Z,9.68
2018-12-07T00:23:48.356Z,9.67
2018-12-07T00:24:48.347Z,9.67
2018-12-07T00:25:48.339Z,9.66
2018-12-07T00:26:48.335Z,9.71
2018-12-07T00:27:48.314Z,9.78
2018-12-07T00:28:48.306Z,9.68
2018-12-07T00:29:48.293Z,9.68
2018-12-07T00:30:48.283Z,9.68
2018-12-07T00:31:48.287Z,9.64
2018-12-07T00:32:48.262Z,9.66
2018-12-07T00:33:48.253Z,9.73
2018-12-07T00:34:48.243Z,9.64
2018-12-07T00:35:48.227Z,9.66
2018-12-07T00:36:48.234Z,9.67
2018-12-07T00:37:48.208Z,9.81
2018-12-07T00:38:48.199Z,9.78
2018-12-07T00:39:48.187Z,9.79
2018-12-07T00:40:48.175Z,9.64
2018-12-07T00:41:48.262Z,9.71
2018-12-07T00:42:48.163Z,9.81
2018-12-07T00:43:48.148Z,9.78
2018-12-07T00:44:48.425Z,9.73
2018-12-07T00:45:48.124Z,9.76
2018-12-07T00:46:48.131Z,9.71
2018-12-07T00:47:48.108Z,9.78
2018-12-07T00:48:48.090Z,9.75
2018-12-07T00:49:48.094Z,9.81
2018-12-07T00:50:48.073Z,9.73
2018-12-07T00:51:48.072Z,9.75
2018-12-07T00:52:48.047Z,9.82
2018-12-07T00:53:48.037Z,9.76
2018-12-07T00:54:48.028Z,9.85
2018-12-07T00:55:48.017Z,9.83
2018-12-07T00:56:48.017Z,9.79
2018-12-07T00:57:47.995Z,9.86
2018-12-07T00:58:47.983Z,9.75
2018-12-07T00:59:47.979Z,9.81
2018-12-07T01:00:47.964Z,9.81
2018-12-07T01:01:47.951Z,9.82
2018-12-07T01:02:47.953Z,9.82
2018-12-07T01:03:47.931Z,9.83
2018-12-07T01:04:47.918Z,9.82
2018-12-07T01:05:47.910Z,9.81
2018-12-07T01:06:47.898Z,9.81
2018-12-07T01:07:47.902Z,9.79
2018-12-07T01:08:47.878Z,9.83
2018-12-07T01:09:47.867Z,9.85
2018-12-07T01:10:47.860Z,9.86
2018-12-07T01:11:47.846Z,9.82
2018-12-07T01:12:47.844Z,9.78
2018-12-07T01:13:47.824Z,9.85
2018-12-07T01:14:47.816Z,9.86
2018-12-07T01:15:47.804Z,9.89
2018-12-07T01:16:47.791Z,9.88
2018-12-07T01:17:47.794Z,9.83
2018-12-07T01:18:47.772Z,9.83
2018-12-07T01:19:47.758Z,9.86
2018-12-07T01:20:47.748Z,9.88
2018-12-07T01:21:47.736Z,9.89
2018-12-07T01:22:47.739Z,9.83
2018-12-07T01:23:47.715Z,9.86
2018-12-07T01:24:47.703Z,9.97
2018-12-07T01:25:47.693Z,9.97
2018-12-07T01:26:47.688Z,9.91
2018-12-07T01:27:47.685Z,9.89
2018-12-07T01:28:47.662Z,9.89
2018-12-07T01:29:47.654Z,9.99
2018-12-07T01:30:47.642Z,9.96
2018-12-07T01:31:47.632Z,10.01
2018-12-07T01:32:47.630Z,10.01
2018-12-07T01:33:47.609Z,10.00
2018-12-07T01:34:47.598Z,9.97
2018-12-07T01:35:47.589Z,9.94
2018-12-07T01:36:47.579Z,9.99
2018-12-07T01:37:47.577Z,9.93
2018-12-07T01:38:47.565Z,9.97
2018-12-07T01:39:47.545Z,9.94
2018-12-07T01:40:47.531Z,9.97
2018-12-07T01:41:47.523Z,9.99
2018-12-07T01:42:47.522Z,10.04
2018-12-07T01:43:47.501Z,10.09
2018-12-07T01:44:47.491Z,10.06
2018-12-07T01:45:47.480Z,9.96
2018-12-07T01:46:47.466Z,9.96
2018-12-07T01:47:47.468Z,10.00
2018-12-07T01:48:47.446Z,10.00
2018-12-07T01:49:47.440Z,10.00
2018-12-07T01:50:47.425Z,10.04
2018-12-07T01:51:47.414Z,10.07
2018-12-07T01:52:47.438Z,10.07
2018-12-07T01:53:47.394Z,10.07
2018-12-07T01:54:47.382Z,10.10
2018-12-07T01:55:47.371Z,10.04
2018-12-07T01:56:47.360Z,10.10
2018-12-07T01:57:47.348Z,10.01
2018-12-07T01:58:47.351Z,10.04
2018-12-07T01:59:47.333Z,10.07
2018-12-07T02:00:47.318Z,10.03
2018-12-07T02:01:47.309Z,10.12
2018-12-07T02:02:47.297Z,10.09
2018-12-07T02:03:47.298Z,10.07
2018-12-07T02:04:47.273Z,10.07
2018-12-07T02:05:47.264Z,10.06
2018-12-07T02:06:47.252Z,10.06
2018-12-07T02:07:47.243Z,10.06
2018-12-07T02:08:47.240Z,10.04
2018-12-07T02:09:47.220Z,10.07
2018-12-07T02:10:47.210Z,10.10
2018-12-07T02:11:47.200Z,10.07
2018-12-07T02:12:47.187Z,10.10
2018-12-07T02:13:47.191Z,10.04
2018-12-07T02:14:47.166Z,10.01
2018-12-07T02:15:47.152Z,10.07
2018-12-07T02:16:47.144Z,10.06
2018-12-07T02:17:47.132Z,9.97
2018-12-07T02:18:47.135Z,10.06
2018-12-07T02:19:47.112Z,10.03
2018-12-07T02:20:47.101Z,10.04
2018-12-07T02:21:47.089Z,10.03
2018-12-07T02:22:47.082Z,10.00
2018-12-07T02:23:47.086Z,10.03
2018-12-07T02:24:47.056Z,10.06
2018-12-07T02:25:47.045Z,10.03
2018-12-07T02:26:47.036Z,10.15
2018-12-07T02:27:47.033Z,10.07
2018-12-07T02:28:47.027Z,10.06
2018-12-07T02:29:47.004Z,10.07
2018-12-07T02:30:46.992Z,10.09
2018-12-07T02:31:46.980Z,10.10
2018-12-07T02:32:46.971Z,10.12
2018-12-07T02:33:46.993Z,10.15
2018-12-07T02:34:46.957Z,10.17
2018-12-07T02:35:46.939Z,10.14
2018-12-07T02:36:46.927Z,10.14
2018-12-07T02:37:46.915Z,10.07
2018-12-07T02:38:46.907Z,10.14
2018-12-07T02:39:46.910Z,10.17
2018-12-07T02:40:46.891Z,10.12
2018-12-07T02:41:46.875Z,10.14
2018-12-07T02:42:47.582Z,10.10
2018-12-07T02:43:46.851Z,10.18
2018-12-07T02:44:46.852Z,10.24
2018-12-07T02:45:46.832Z,10.21
2018-12-07T02:46:46.817Z,10.09
2018-12-07T02:47:46.805Z,10.14
2018-12-07T02:48:46.797Z,10.10
2018-12-07T02:49:46.799Z,10.17
2018-12-07T02:50:46.776Z,10.18
2018-12-07T02:51:46.765Z,10.09
2018-12-07T02:52:46.754Z,10.09
2018-12-07T02:53:46.743Z,10.10
2018-12-07T02:54:46.743Z,10.12
2018-12-07T02:55:46.721Z,10.14
2018-12-07T02:56:46.711Z,10.18
2018-12-07T02:57:46.698Z,10.17
2018-12-07T02:58:46.699Z,10.15
2018-12-07T02:59:46.696Z,10.09
2018-12-07T03:00:46.666Z,10.15
2018-12-07T03:01:46.661Z,10.10
2018-12-07T03:02:46.647Z,10.06
2018-12-07T03:03:46.639Z,10.07
2018-12-07T03:04:46.822Z,10.07
2018-12-07T03:05:46.618Z,10.03
2018-12-07T03:06:46.604Z,10.06
2018-12-07T03:07:46.591Z,10.10
2018-12-07T03:08:46.582Z,10.01
2018-12-07T03:09:46.569Z,10.10
2018-12-07T03:10:46.568Z,10.10
2018-12-07T03:11:46.545Z,10.03
2018-12-07T03:12:46.539Z,10.07
2018-12-07T03:13:46.527Z,10.06
2018-12-07T03:14:46.517Z,10.01
2018-12-07T03:15:46.513Z,10.06
2018-12-07T03:16:46.492Z,10.06
2018-12-07T03:17:46.480Z,10.03
2018-12-07T03:18:46.475Z,10.07
2018-12-07T03:19:46.461Z,10.07
2018-12-07T03:20:46.458Z,10.07
2018-12-07T03:21:46.441Z,9.99
2018-12-07T03:22:46.429Z,10.04
2018-12-07T03:23:46.415Z,10.06
2018-12-07T03:24:46.410Z,10.07
2018-12-07T03:25:46.407Z,10.06
2018-12-07T03:26:46.383Z,10.04
2018-12-07T03:27:46.372Z,10.09
2018-12-07T03:28:46.360Z,9.97
2018-12-07T03:29:46.350Z,10.06
2018-12-07T03:30:46.356Z,10.10
2018-12-07T03:31:46.331Z,10.06
2018-12-07T03:32:46.319Z,10.04
2018-12-07T03:33:46.314Z,10.03
2018-12-07T03:34:46.301Z,10.06
2018-12-07T03:35:46.300Z,10.07
2018-12-07T03:36:46.278Z,10.03
2018-12-07T03:37:46.266Z,10.10
2018-12-07T03:38:46.253Z,10.07
2018-12-07T03:39:46.248Z,10.06
2018-12-07T03:40:46.247Z,10.06
2018-12-07T03:41:46.227Z,10.09
2018-12-07T03:42:46.211Z,10.07
2018-12-07T03:43:46.204Z,10.14
2018-12-07T03:44:46.190Z,9.99
2018-12-07T03:45:46.181Z,10.03
2018-12-07T03:46:46.184Z,10.06
2018-12-07T03:47:46.159Z,10.04
2018-12-07T03:48:46.151Z,10.07
2018-12-07T03:49:46.137Z,10.00
2018-12-07T03:50:46.122Z,10.09
2018-12-07T03:51:46.127Z,10.06
2018-12-07T03:52:46.104Z,10.03
2018-12-07T03:53:46.092Z,10.03
2018-12-07T03:54:46.083Z,10.09
2018-12-07T03:55:46.072Z,10.04
2018-12-07T03:56:46.070Z,9.99
2018-12-07T03:57:46.072Z,10.04
2018-12-07T03:58:46.038Z,10.12
2018-12-07T03:59:46.025Z,10.03
2018-12-07T04:00:46.017Z,10.07
2018-12-07T04:01:46.017Z,10.10
2018-12-07T04:02:45.997Z,10.09
2018-12-07T04:03:45.984Z,10.14
2018-12-07T04:04:45.972Z,10.07
2018-12-07T04:05:45.961Z,10.09
2018-12-07T04:06:45.962Z,10.04
2018-12-07T04:07:45.942Z,10.03
2018-12-07T04:08:45.931Z,10.10
2018-12-07T04:09:45.923Z,10.10
2018-12-07T04:10:45.911Z,10.07
2018-12-07T04:11:45.908Z,10.14
2018-12-07T04:12:45.887Z,10.14
2018-12-07T04:13:45.873Z,10.09
2018-12-07T04:14:45.863Z,10.09
2018-12-07T04:15:45.854Z,10.06
2018-12-07T04:16:45.880Z,10.15
2018-12-07T04:17:45.837Z,10.10
2018-12-07T04:18:45.820Z,10.14
2018-12-07T04:19:45.809Z,10.17
2018-12-07T04:20:45.805Z,10.18
2018-12-07T04:21:45.824Z,10.09
2018-12-07T04:22:45.780Z,10.10
2018-12-07T04:23:45.771Z,10.17
2018-12-07T04:24:45.758Z,10.19
2018-12-07T04:25:45.746Z,10.18
2018-12-07T04:26:45.739Z,10.19
2018-12-07T04:27:45.735Z,10.22
2018-12-07T04:28:45.711Z,10.15
2018-12-07T04:29:45.708Z,10.17
2018-12-07T04:30:45.693Z,10.25
2018-12-07T04:31:45.680Z,10.19
2018-12-07T04:32:45.710Z,10.17
2018-12-07T04:33:45.661Z,10.15
2018-12-07T04:34:45.646Z,10.25
2018-12-07T04:35:45.637Z,10.19
2018-12-07T04:36:45.628Z,10.18
2018-12-07T04:37:45.637Z,10.19
2018-12-07T04:38:45.605Z,10.22
2018-12-07T04:39:45.595Z,10.21
2018-12-07T04:40:45.593Z,10.21
2018-12-07T04:41:45.575Z,10.18
2018-12-07T04:42:45.580Z,10.18
2018-12-07T04:43:45.549Z,10.22
2018-12-07T04:44:45.539Z,10.21
2018-12-07T04:45:45.526Z,10.19
2018-12-07T04:46:45.517Z,10.21
2018-12-07T04:47:45.522Z,10.18
2018-12-07T04:48:45.506Z,10.18
2018-12-07T04:49:45.486Z,10.18
2018-12-07T04:50:45.487Z,10.17
2018-12-07T04:51:45.465Z,10.17
2018-12-07T04:52:45.470Z,10.28
2018-12-07T04:53:45.449Z,10.28
2018-12-07T04:54:45.434Z,10.21
2018-12-07T04:55:45.430Z,10.30
2018-12-07T04:56:45.410Z,10.33
2018-12-07T04:57:45.439Z,10.28
2018-12-07T04:58:45.388Z,10.25
2018-12-07T04:59:45.375Z,10.26
2018-12-07T05:00:45.367Z,10.30
2018-12-07T05:01:45.355Z,10.30
2018-12-07T05:02:45.343Z,10.24
2018-12-07T05:03:45.355Z,10.32
2018-12-07T05:04:45.321Z,10.28
2018-12-07T05:05:45.342Z,10.28
2018-12-07T05:06:45.316Z,10.26
2018-12-07T05:07:45.289Z,10.28
2018-12-07T05:08:45.294Z,10.30
2018-12-07T05:09:45.268Z,10.22
2018-12-07T05:10:45.260Z,10.30
2018-12-07T05:11:45.257Z,10.28
2018-12-07T05:12:45.235Z,10.26
2018-12-07T05:13:45.239Z,10.25
2018-12-07T05:14:45.225Z,10.25
2018-12-07T05:15:45.209Z,10.18
2018-12-07T05:16:45.194Z,10.30
2018-12-07T05:17:45.183Z,10.33
2018-12-07T05:18:45.182Z,10.25
2018-12-07T05:19:45.161Z,10.30
2018-12-07T05:20:45.153Z,10.22
2018-12-07T05:21:45.142Z,10.28
2018-12-07T05:22:45.130Z,10.30
2018-12-07T05:23:45.128Z,10.34
2018-12-07T05:24:45.114Z,10.28
2018-12-07T05:25:45.096Z,10.26
2018-12-07T05:26:45.086Z,10.30
2018-12-07T05:27:45.075Z,10.22
2018-12-07T05:28:45.104Z,10.30
2018-12-07T05:29:45.059Z,10.19
2018-12-07T05:30:45.050Z,10.32
2018-12-07T05:31:45.049Z,10.30
2018-12-07T05:32:45.021Z,10.30
2018-12-07T05:33:45.022Z,10.34
2018-12-07T05:34:45.015Z,10.37
2018-12-07T05:35:44.990Z,10.39
2018-12-07T05:36:44.978Z,10.37
2018-12-07T05:37:44.966Z,10.40
2018-12-07T05:38:44.969Z,10.22
2018-12-07T05:39:44.957Z,10.36
2018-12-07T05:40:44.932Z,10.34
2018-12-07T05:41:44.939Z,10.28
2018-12-07T05:42:44.914Z,10.30
2018-12-07T05:43:44.899Z,10.34
2018-12-07T05:44:44.903Z,10.33
2018-12-07T05:45:44.881Z,10.37
2018-12-07T05:46:44.884Z,10.36
2018-12-07T05:47:44.860Z,10.42
2018-12-07T05:48:44.847Z,10.39
2018-12-07T05:49:44.851Z,10.40
2018-12-07T05:50:44.827Z,10.33
2018-12-07T05:51:44.827Z,10.33
2018-12-07T05:52:44.805Z,10.40
2018-12-07T05:53:44.799Z,10.40
2018-12-07T05:54:44.793Z,10.40
2018-12-07T05:55:44.774Z,10.33
2018-12-07T05:56:44.769Z,10.37
2018-12-07T05:57:44.751Z,10.33
2018-12-07T05:58:44.758Z,10.40
2018-12-07T05:59:44.741Z,10.40
2018-12-07T06:00:44.720Z,10.39
2018-12-07T06:01:44.714Z,10.36
2018-12-07T06:02:44.698Z,10.40
2018-12-07T06:03:44.686Z,10.42
2018-12-07T06:04:44.673Z,10.39
2018-12-07T06:05:44.676Z,10.40
2018-12-07T06:06:44.655Z,10.36
2018-12-07T06:07:44.654Z,10.37
2018-12-07T06:08:44.631Z,10.39
2018-12-07T06:09:44.622Z,10.36
2018-12-07T06:10:44.623Z,10.52
2018-12-07T06:11:44.601Z,10.36
2018-12-07T06:12:44.599Z,10.42
2018-12-07T06:13:44.590Z,10.40
2018-12-07T06:14:44.572Z,10.51
2018-12-07T06:15:44.570Z,10.44
2018-12-07T06:16:44.553Z,10.47
2018-12-07T06:17:44.622Z,10.52
2018-12-07T06:18:44.531Z,10.44
2018-12-07T06:19:44.514Z,10.52
2018-12-07T06:20:44.532Z,10.47
2018-12-07T06:21:44.491Z,10.58
2018-12-07T06:22:44.506Z,10.55
2018-12-07T06:23:44.470Z,10.52
2018-12-07T06:24:44.478Z,10.55
2018-12-07T06:25:44.485Z,10.55
2018-12-07T06:26:44.440Z,10.56
2018-12-07T06:27:44.425Z,10.53
2018-12-07T06:28:44.416Z,10.46
2018-12-07T06:29:44.407Z,10.51
2018-12-07T06:30:44.417Z,10.46
2018-12-07T06:31:44.413Z,10.53
2018-12-07T06:32:44.390Z,10.53
2018-12-07T06:33:44.362Z,10.52
2018-12-07T06:34:44.351Z,10.55
2018-12-07T06:35:44.340Z,10.55
2018-12-07T06:36:44.343Z,10.59
2018-12-07T06:37:44.329Z,10.56
2018-12-07T06:38:44.321Z,10.58
2018-12-07T06:39:44.309Z,10.60
2018-12-07T06:40:44.293Z,10.62
2018-12-07T06:41:44.293Z,10.60
2018-12-07T06:42:44.266Z,10.58
2018-12-07T06:43:44.257Z,10.60
2018-12-07T06:44:44.243Z,10.66
2018-12-07T06:45:44.233Z,10.65
2018-12-07T06:46:44.233Z,10.62
2018-12-07T06:47:44.210Z,10.66
2018-12-07T06:48:44.200Z,10.60
2018-12-07T06:49:44.193Z,10.63
2018-12-07T06:50:44.180Z,10.59
2018-12-07T06:51:44.177Z,10.63
2018-12-07T06:52:44.161Z,10.63
2018-12-07T06:53:44.150Z,10.63
2018-12-07T06:54:44.143Z,10.68
2018-12-07T06:55:44.124Z,10.68
2018-12-07T06:56:44.125Z,10.62
2018-12-07T06:57:44.109Z,10.77
2018-12-07T06:58:44.095Z,10.66
2018-12-07T06:59:44.083Z,10.70
2018-12-07T07:00:44.070Z,10.68
2018-12-07T07:01:44.106Z,10.76
2018-12-07T07:02:44.051Z,10.66
2018-12-07T07:03:44.042Z,10.70
2018-12-07T07:04:44.042Z,10.73
2018-12-07T07:05:44.025Z,10.71
2018-12-07T07:06:44.018Z,10.68
2018-12-07T07:07:44.013Z,10.74
2018-12-07T07:08:43.985Z,10.80
2018-12-07T07:09:43.973Z,10.71
2018-12-07T07:10:43.963Z,10.77
2018-12-07T07:11:43.961Z,10.77
2018-12-07T07:12:43.955Z,10.78
2018-12-07T07:13:43.953Z,10.74
2018-12-07T07:14:43.928Z,10.78
2018-12-07T07:15:43.912Z,10.80
2018-12-07T07:16:43.900Z,10.78
2018-12-07T07:17:43.912Z,10.81
2018-12-07T07:18:43.877Z,10.76
2018-12-07T07:19:43.871Z,10.74
2018-12-07T07:20:43.867Z,10.76
2018-12-07T07:21:43.853Z,10.76
2018-12-07T07:22:43.846Z,10.76
2018-12-07T07:23:44.945Z,10.89
2018-12-07T07:24:43.816Z,10.80
2018-12-07T07:25:43.813Z,10.89
2018-12-07T07:26:44.602Z,10.86
2018-12-07T07:27:43.797Z,10.84
2018-12-07T07:28:43.914Z,10.86
2018-12-07T07:29:43.760Z,10.83
2018-12-07T07:30:43.765Z,10.86
2018-12-07T07:31:43.863Z,10.83
2018-12-07T07:32:43.737Z,10.83
2018-12-07T07:33:43.718Z,10.89
2018-12-07T07:34:43.707Z,10.91
2018-12-07T07:35:43.700Z,10.89
2018-12-07T07:36:43.684Z,10.96
2018-12-07T07:37:43.705Z,10.95
2018-12-07T07:38:43.664Z,10.98
2018-12-07T07:39:43.652Z,10.92
2018-12-07T07:40:43.648Z,10.94
2018-12-07T07:41:43.635Z,10.89
2018-12-07T07:42:43.620Z,10.88
2018-12-07T07:43:43.622Z,10.92
2018-12-07T07:44:43.602Z,10.95
2018-12-07T07:45:43.588Z,10.99
2018-12-07T07:46:43.578Z,10.99
2018-12-07T07:47:43.572Z,10.94
2018-12-07T07:48:43.576Z,10.95
2018-12-07T07:49:43.544Z,10.96
2018-12-07T07:50:43.534Z,10.99
2018-12-07T07:51:43.525Z,10.91
2018-12-07T07:52:43.514Z,10.94
2018-12-07T07:53:43.517Z,10.92
2018-12-07T07:54:43.551Z,11.03
2018-12-07T07:55:43.481Z,10.96
2018-12-07T07:56:43.473Z,11.01
2018-12-07T07:57:43.461Z,11.09
2018-12-07T07:58:43.463Z,11.06
2018-12-07T07:59:43.437Z,11.06
2018-12-07T08:00:43.428Z,11.01
2018-12-07T08:01:43.416Z,11.07
2018-12-07T08:02:43.420Z,11.02
2018-12-07T08:03:43.405Z,11.09
2018-12-07T08:04:43.382Z,11.10
2018-12-07T08:05:43.374Z,11.17
2018-12-07T08:06:43.361Z,11.13
2018-12-07T08:07:43.357Z,11.11
2018-12-07T08:08:43.356Z,11.13
2018-12-07T08:09:46.153Z,11.14
2018-12-07T08:10:43.320Z,11.13
2018-12-07T08:11:43.310Z,11.13
2018-12-07T08:12:43.300Z,11.11
2018-12-07T08:13:43.306Z,11.16
2018-12-07T08:14:43.276Z,11.21
2018-12-07T08:15:43.267Z,11.21
2018-12-07T08:16:43.254Z,11.20
2018-12-07T08:17:43.247Z,11.27
2018-12-07T08:18:47.118Z,11.25
2018-12-07T08:19:43.241Z,11.21
2018-12-07T08:20:43.222Z,11.20
2018-12-07T08:21:43.206Z,11.28
2018-12-07T08:22:43.195Z,11.21
2018-12-07T08:23:43.190Z,11.20
2018-12-07T08:24:43.169Z,11.27
2018-12-07T08:25:43.160Z,11.28
2018-12-07T08:26:43.148Z,11.29
2018-12-07T08:27:43.148Z,11.28
2018-12-07T08:28:43.134Z,11.31
2018-12-07T08:29:43.113Z,11.31
2018-12-07T08:30:43.104Z,11.39
2018-12-07T08:31:43.107Z,11.28
2018-12-07T08:32:43.091Z,11.34
2018-12-07T08:33:43.094Z,11.31
2018-12-07T08:34:43.062Z,11.28
2018-12-07T08:35:43.068Z,11.25
2018-12-07T08:36:43.656Z,11.39
2018-12-07T08:37:43.096Z,11.38
2018-12-07T08:38:43.057Z,11.39
2018-12-07T08:39:43.011Z,11.36
2018-12-07T08:40:43.017Z,11.43
2018-12-07T08:41:43.111Z,11.47
2018-12-07T08:42:43.152Z,11.49
2018-12-07T08:43:42.977Z,11.47
2018-12-07T08:44:43.071Z,11.39
2018-12-07T08:45:44.137Z,11.53
2018-12-07T08:46:43.081Z,11.53
2018-12-07T08:47:43.631Z,11.53
2018-12-07T08:48:42.963Z,11.54
2018-12-07T08:49:42.939Z,11.56
2018-12-07T08:50:42.967Z,11.56
2018-12-07T08:51:42.918Z,11.59
2018-12-07T08:52:43.043Z,11.57
2018-12-07T08:53:42.862Z,11.65
2018-12-07T08:54:43.454Z,11.68
2018-12-07T08:55:42.929Z,11.68
2018-12-07T08:56:43.052Z,11.72
2018-12-07T08:57:42.831Z,11.70
2018-12-07T08:58:42.870Z,11.70
2018-12-07T08:59:42.811Z,11.70
2018-12-07T09:00:42.787Z,11.71
2018-12-07T09:01:42.785Z,11.80
2018-12-07T09:02:42.763Z,11.77
2018-12-07T09:03:42.754Z,11.74
2018-12-07T09:04:42.751Z,11.74
2018-12-07T09:05:42.729Z,11.70
2018-12-07T09:06:42.719Z,11.75
2018-12-07T09:07:42.709Z,11.75
2018-12-07T09:08:42.702Z,11.70
2018-12-07T09:09:42.703Z,11.72
2018-12-07T09:10:42.681Z,11.72
2018-12-07T09:11:42.665Z,11.75
2018-12-07T09:12:42.661Z,11.80
2018-12-07T09:13:42.648Z,11.74
2018-12-07T09:14:42.650Z,11.77
2018-12-07T09:15:42.623Z,11.74
2018-12-07T09:16:42.615Z,11.77
2018-12-07T09:17:42.604Z,11.80
2018-12-07T09:18:42.596Z,11.75
2018-12-07T09:19:42.627Z,11.75
2018-12-07T09:20:42.569Z,11.72
2018-12-07T09:21:42.560Z,11.74
2018-12-07T09:22:42.550Z,11.75
2018-12-07T09:23:49.382Z,11.78
2018-12-07T09:24:43.557Z,11.85
2018-12-07T09:25:42.523Z,11.78
2018-12-07T09:26:42.505Z,11.80
2018-12-07T09:27:42.502Z,11.80
2018-12-07T09:28:42.494Z,11.87
2018-12-07T09:29:42.471Z,11.85
2018-12-07T09:30:42.476Z,11.89
2018-12-07T09:31:42.459Z,11.86
2018-12-07T09:32:42.440Z,11.87
2018-12-07T09:33:42.430Z,11.90
2018-12-07T09:34:42.419Z,11.93
2018-12-07T09:35:42.421Z,11.93
2018-12-07T09:36:42.399Z,11.89
2018-12-07T09:37:42.389Z,11.90
2018-12-07T09:38:42.375Z,11.85
2018-12-07T09:39:42.365Z,11.99
2018-12-07T09:40:42.365Z,12.02
2018-12-07T09:41:42.344Z,11.89
2018-12-07T09:42:42.334Z,11.96
2018-12-07T09:43:42.321Z,11.93
2018-12-07T09:44:42.315Z,11.89
2018-12-07T09:45:42.312Z,11.90
2018-12-07T09:46:42.289Z,11.93
2018-12-07T09:47:42.280Z,11.99
2018-12-07T09:48:42.272Z,11.90
2018-12-07T09:49:42.259Z,11.89
2018-12-07T09:50:42.261Z,11.94
2018-12-07T09:51:42.235Z,11.87
2018-12-07T09:52:42.225Z,11.93
2018-12-07T09:53:42.226Z,11.93
2018-12-07T09:54:42.213Z,11.90
2018-12-07T09:55:42.202Z,11.89
2018-12-07T09:56:42.195Z,11.94
2018-12-07T09:57:42.174Z,11.93
2018-12-07T09:58:42.160Z,11.93
2018-12-07T09:59:42.153Z,11.90
2018-12-07T10:00:42.167Z,11.99
2018-12-07T10:01:42.132Z,11.99
2018-12-07T10:02:42.125Z,12.04
2018-12-07T10:03:42.107Z,12.04
2018-12-07T10:04:42.098Z,11.93
2018-12-07T10:05:42.086Z,11.99
2018-12-07T10:06:42.114Z,12.05
2018-12-07T10:07:42.064Z,12.02
2018-12-07T10:08:42.053Z,11.96
2018-12-07T10:09:42.047Z,11.97
2018-12-07T10:10:42.034Z,12.04
2018-12-07T10:11:42.048Z,12.06
2018-12-07T10:12:42.010Z,12.08
2018-12-07T10:13:42.002Z,12.01
2018-12-07T10:14:41.989Z,12.04
2018-12-07T10:15:44.763Z,12.06
2018-12-07T10:16:41.982Z,12.24
2018-12-07T10:17:41.967Z,12.12
2018-12-07T10:18:41.957Z,12.20
2018-12-07T10:19:41.935Z,12.16
2018-12-07T10:20:41.925Z,12.29
2018-12-07T10:21:41.940Z,12.29
2018-12-07T10:22:41.903Z,12.29
2018-12-07T10:23:41.894Z,12.33
2018-12-07T10:24:41.880Z,12.29
2018-12-07T10:25:41.885Z,12.33
2018-12-07T10:26:41.888Z,12.31
2018-12-07T10:27:41.848Z,12.34
2018-12-07T10:28:41.855Z,12.37
2018-12-07T10:29:41.826Z,12.39
2018-12-07T10:30:41.825Z,12.38
2018-12-07T10:31:41.826Z,12.38
2018-12-07T10:32:41.808Z,12.39
2018-12-07T10:33:41.874Z,12.41
2018-12-07T10:34:41.776Z,12.39
2018-12-07T10:35:41.779Z,12.44
2018-12-07T10:36:41.751Z,12.46
2018-12-07T10:37:41.750Z,12.52
2018-12-07T10:38:41.729Z,12.46
2018-12-07T10:39:41.719Z,12.48
2018-12-07T10:40:41.717Z,12.51
2018-12-07T10:41:41.698Z,12.49
2018-12-07T10:42:41.707Z,12.44
2018-12-07T10:43:41.673Z,12.49
2018-12-07T10:44:41.667Z,12.45
2018-12-07T10:45:41.652Z,12.45
2018-12-07T10:46:41.645Z,12.49
2018-12-07T10:47:41.642Z,12.48
2018-12-07T10:48:41.639Z,12.54
2018-12-07T10:49:41.609Z,12.49
2018-12-07T10:50:41.600Z,12.51
2018-12-07T10:51:41.589Z,12.59
2018-12-07T10:52:41.590Z,12.46
2018-12-07T10:53:41.565Z,12.49
2018-12-07T10:54:41.556Z,12.59
2018-12-07T10:55:41.544Z,12.49
2018-12-07T10:56:41.533Z,12.49
2018-12-07T10:57:41.537Z,12.64
2018-12-07T10:58:41.522Z,12.46
2018-12-07T10:59:41.536Z,12.51
2018-12-07T11:00:41.494Z,12.48
2018-12-07T11:01:41.479Z,12.48
2018-12-07T11:02:41.501Z,12.41
2018-12-07T11:03:41.465Z,12.48
2018-12-07T11:04:41.460Z,12.63
2018-12-07T11:05:41.435Z,12.51
2018-12-07T11:06:41.425Z,12.52
2018-12-07T11:07:41.417Z,12.57
2018-12-07T11:08:41.419Z,12.66
2018-12-07T11:09:41.396Z,12.64
2018-12-07T11:10:41.392Z,12.56
2018-12-07T11:11:41.382Z,12.54
2018-12-07T11:12:41.361Z,12.57
2018-12-07T11:13:41.365Z,12.64
2018-12-07T11:14:41.369Z,12.62
2018-12-07T11:15:41.366Z,12.69
2018-12-07T11:16:41.318Z,12.71
2018-12-07T11:17:41.329Z,12.67
2018-12-07T11:18:41.304Z,12.69
2018-12-07T11:19:41.284Z,12.75
2018-12-07T11:20:41.272Z,12.78
2018-12-07T11:21:41.263Z,12.84
2018-12-07T11:22:41.251Z,12.84
2018-12-07T11:23:41.262Z,12.87
2018-12-07T11:24:41.238Z,12.84
2018-12-07T11:25:41.222Z,12.87
2018-12-07T11:26:41.208Z,12.89
2018-12-07T11:27:41.204Z,12.93
2018-12-07T11:28:41.207Z,12.93
2018-12-07T11:29:41.178Z,12.92
2018-12-07T11:30:41.162Z,13.00
2018-12-07T11:31:41.152Z,12.96
2018-12-07T11:32:41.145Z,12.93
2018-12-07T11:33:41.185Z,12.85
2018-12-07T11:34:41.131Z,12.89
2018-12-07T11:35:41.110Z,12.85
2018-12-07T11:36:41.101Z,12.79
2018-12-07T11:37:41.094Z,12.81
2018-12-07T11:38:41.076Z,12.79
2018-12-07T11:39:41.090Z,12.78
2018-12-07T11:40:41.053Z,12.77
2018-12-07T11:41:41.045Z,12.82
2018-12-07T11:42:41.033Z,12.77
2018-12-07T11:43:41.023Z,12.81
2018-12-07T11:44:41.023Z,12.74
2018-12-07T11:45:41.001Z,12.82
2018-12-07T11:46:40.994Z,12.75
2018-12-07T11:47:40.997Z,12.77
2018-12-07T11:48:40.969Z,12.67
2018-12-07T11:49:56.195Z,12.66
2018-12-07T11:50:40.961Z,12.74
2018-12-07T11:51:40.941Z,12.69
2018-12-07T11:52:40.925Z,12.66
2018-12-07T11:53:40.912Z,12.67
2018-12-07T11:54:40.915Z,12.67
2018-12-07T11:55:42.765Z,12.69
2018-12-07T11:56:40.881Z,12.69
2018-12-07T11:57:40.869Z,12.66
2018-12-07T11:58:40.856Z,12.67
2018-12-07T11:59:40.883Z,12.71
2018-12-07T12:00:40.840Z,12.69
2018-12-07T12:01:44.715Z,12.63
2018-12-07T12:02:40.817Z,12.63
2018-12-07T12:03:40.803Z,12.63
2018-12-07T12:04:40.792Z,12.69
2018-12-07T12:05:40.794Z,12.66
2018-12-07T12:06:40.774Z,12.66
2018-12-07T12:07:40.763Z,12.64
2018-12-07T12:08:40.750Z,12.71
2018-12-07T12:09:40.738Z,12.64
2018-12-07T12:10:40.772Z,12.59
2018-12-07T12:11:40.719Z,12.52
2018-12-07T12:12:40.709Z,12.63
2018-12-07T12:13:40.695Z,12.57
2018-12-07T12:14:40.686Z,12.62
2018-12-07T12:15:40.684Z,12.46
2018-12-07T12:16:40.665Z,12.57
2018-12-07T12:17:40.653Z,12.48
2018-12-07T12:18:40.646Z,12.48
2018-12-07T12:19:40.633Z,12.54
2018-12-07T12:20:40.632Z,12.52
2018-12-07T12:21:40.610Z,12.51
2018-12-07T12:22:43.261Z,12.49
2018-12-07T12:23:40.589Z,12.51
2018-12-07T12:24:40.577Z,12.48
2018-12-07T12:25:40.582Z,12.48
2018-12-07T12:26:40.557Z,12.48
2018-12-07T12:27:40.544Z,12.48
2018-12-07T12:28:40.532Z,12.45
2018-12-07T12:29:40.529Z,12.51
2018-12-07T12:30:40.546Z,12.44
2018-12-07T12:31:40.505Z,12.52
2018-12-07T12:32:40.495Z,12.52
2018-12-07T12:33:40.480Z,12.51
2018-12-07T12:34:40.472Z,12.44
2018-12-07T12:35:40.463Z,12.44
2018-12-07T12:36:40.475Z,12.39
2018-12-07T12:37:40.440Z,12.42
2018-12-07T12:38:40.429Z,12.46
2018-12-07T12:39:40.416Z,12.42
2018-12-07T12:40:40.402Z,12.41
2018-12-07T12:41:46.792Z,12.39
2018-12-07T12:42:41.383Z,12.42
2018-12-07T12:43:40.372Z,12.39
2018-12-07T12:44:40.361Z,12.37
2018-12-07T12:45:40.348Z,12.39
2018-12-07T12:46:40.353Z,12.37
2018-12-07T12:47:40.342Z,12.33
2018-12-07T12:48:40.316Z,12.38
2018-12-07T12:49:40.306Z,12.41
2018-12-07T12:50:40.304Z,12.44
2018-12-07T12:51:40.334Z,12.38
2018-12-07T12:52:40.279Z,12.38
2018-12-07T12:53:40.266Z,12.37
2018-12-07T12:54:40.254Z,12.38
2018-12-07T12:55:40.245Z,12.33
2018-12-07T12:56:40.269Z,12.41